sensor_id;sensor_type;location;lat;lon;timestamp;temperature;humidity
27200;DHT22;14714;48.106;11.546;2023-09-07T00:02:01;12.90;99.90
27200;DHT22;14714;48.106;11.546;2023-09-07T00:04:31;12.90;99.90
27200;DHT22;14714;48.106;11.546;2023-09-07T00:07:00;12.90;99.90
27200;DHT22;14714;48.106;11.546;2023-09-07T00:09:30;12.80;99.90
27200;DHT22;14714;48.106;11.546;2023-09-07T00:12:00;12.80;99.90
27200;DHT22;14714;48.106;11.546;2023-09-07T00:14:29;12.80;99.90
27200;DHT22;14714;48.106;11.546;2023-09-07T00:17:00;12.80;99.90
27200;DHT22;14714;48.106;11.546;2023-09-07T00:19:34;12.80;99.90
27200;DHT22;14714;48.106;11.546;2023-09-07T00:22:05;12.80;99.90
27200;DHT22;14714;48.106;11.546;2023-09-07T00:24:37;12.80;99.90
27200;DHT22;14714;48.106;11.546;2023-09-07T00:27:10;12.80;99.90
27200;DHT22;14714;48.106;11.546;2023-09-07T00:29:40;12.80;99.90
27200;DHT22;14714;48.106;11.546;2023-09-07T00:32:09;12.80;99.90
27200;DHT22;14714;48.106;11.546;2023-09-07T00:34:41;12.80;99.90
27200;DHT22;14714;48.106;11.546;2023-09-07T00:37:10;12.80;99.90
27200;DHT22;14714;48.106;11.546;2023-09-07T00:39:43;12.80;99.90
27200;DHT22;14714;48.106;11.546;2023-09-07T00:42:14;12.80;99.90
27200;DHT22;14714;48.106;11.546;2023-09-07T00:44:44;12.70;99.90
27200;DHT22;14714;48.106;11.546;2023-09-07T00:47:15;12.70;99.90
27200;DHT22;14714;48.106;11.546;2023-09-07T00:49:44;12.70;99.90
27200;DHT22;14714;48.106;11.546;2023-09-07T00:52:13;12.70;99.90
27200;DHT22;14714;48.106;11.546;2023-09-07T00:54:42;12.70;99.90
27200;DHT22;14714;48.106;11.546;2023-09-07T00:57:12;12.70;99.90
27200;DHT22;14714;48.106;11.546;2023-09-07T00:59:41;12.60;99.90
27200;DHT22;14714;48.106;11.546;2023-09-07T01:02:10;12.60;99.90
27200;DHT22;14714;48.106;11.546;2023-09-07T01:04:39;12.60;99.90
27200;DHT22;14714;48.106;11.546;2023-09-07T01:07:25;12.60;99.90
27200;DHT22;14714;48.106;11.546;2023-09-07T01:10:00;12.60;99.90
27200;DHT22;14714;48.106;11.546;2023-09-07T01:12:30;12.50;99.90
27200;DHT22;14714;48.106;11.546;2023-09-07T01:15:00;12.50;99.90
27200;DHT22;14714;48.106;11.546;2023-09-07T01:17:30;12.40;99.90
27200;DHT22;14714;48.106;11.546;2023-09-07T01:20:04;12.40;99.90
27200;DHT22;14714;48.106;11.546;2023-09-07T01:22:37;12.40;99.90
27200;DHT22;14714;48.106;11.546;2023-09-07T01:25:07;12.40;99.90
27200;DHT22;14714;48.106;11.546;2023-09-07T01:27:36;12.40;99.90
27200;DHT22;14714;48.106;11.546;2023-09-07T01:30:07;12.40;99.90
27200;DHT22;14714;48.106;11.546;2023-09-07T01:32:37;12.40;99.90
27200;DHT22;14714;48.106;11.546;2023-09-07T01:35:10;12.30;99.90
27200;DHT22;14714;48.106;11.546;2023-09-07T01:37:41;12.30;99.90
27200;DHT22;14714;48.106;11.546;2023-09-07T01:40:09;12.30;99.90
27200;DHT22;14714;48.106;11.546;2023-09-07T01:42:38;12.20;99.90
27200;DHT22;14714;48.106;11.546;2023-09-07T01:45:09;12.20;99.90
27200;DHT22;14714;48.106;11.546;2023-09-07T01:47:39;12.20;99.90
27200;DHT22;14714;48.106;11.546;2023-09-07T01:50:07;12.20;99.90
27200;DHT22;14714;48.106;11.546;2023-09-07T01:52:37;12.20;99.90
27200;DHT22;14714;48.106;11.546;2023-09-07T01:55:08;12.10;99.90
27200;DHT22;14714;48.106;11.546;2023-09-07T01:57:38;12.10;99.90
27200;DHT22;14714;48.106;11.546;2023-09-07T02:00:09;12.10;99.90
27200;DHT22;14714;48.106;11.546;2023-09-07T02:02:38;12.10;99.90
27200;DHT22;14714;48.106;11.546;2023-09-07T02:05:08;12.10;99.90
27200;DHT22;14714;48.106;11.546;2023-09-07T02:07:41;12.00;99.90
27200;DHT22;14714;48.106;11.546;2023-09-07T02:10:10;12.00;99.90
27200;DHT22;14714;48.106;11.546;2023-09-07T02:12:42;12.00;99.90
27200;DHT22;14714;48.106;11.546;2023-09-07T02:15:13;12.00;99.90
27200;DHT22;14714;48.106;11.546;2023-09-07T02:17:42;11.90;99.90
27200;DHT22;14714;48.106;11.546;2023-09-07T02:20:12;11.90;99.90
27200;DHT22;14714;48.106;11.546;2023-09-07T02:22:42;11.90;99.90
27200;DHT22;14714;48.106;11.546;2023-09-07T02:25:12;11.90;99.90
27200;DHT22;14714;48.106;11.546;2023-09-07T02:27:43;11.90;99.90
27200;DHT22;14714;48.106;11.546;2023-09-07T02:30:12;11.80;99.90
27200;DHT22;14714;48.106;11.546;2023-09-07T02:32:42;11.80;99.90
27200;DHT22;14714;48.106;11.546;2023-09-07T02:35:22;11.80;99.90
27200;DHT22;14714;48.106;11.546;2023-09-07T02:37:56;11.70;99.90
27200;DHT22;14714;48.106;11.546;2023-09-07T02:40:25;11.80;99.90
27200;DHT22;14714;48.106;11.546;2023-09-07T02:42:54;11.80;99.90
27200;DHT22;14714;48.106;11.546;2023-09-07T02:45:23;11.70;99.90
27200;DHT22;14714;48.106;11.546;2023-09-07T02:47:53;11.80;99.90
27200;DHT22;14714;48.106;11.546;2023-09-07T02:50:24;11.70;99.90
27200;DHT22;14714;48.106;11.546;2023-09-07T02:52:54;11.70;99.90
27200;DHT22;14714;48.106;11.546;2023-09-07T02:55:23;11.70;99.90
27200;DHT22;14714;48.106;11.546;2023-09-07T02:57:53;11.70;99.90
27200;DHT22;14714;48.106;11.546;2023-09-07T03:00:24;11.60;99.90
27200;DHT22;14714;48.106;11.546;2023-09-07T03:02:55;11.60;99.90
27200;DHT22;14714;48.106;11.546;2023-09-07T03:05:27;11.60;99.90
27200;DHT22;14714;48.106;11.546;2023-09-07T03:07:59;11.60;99.90
27200;DHT22;14714;48.106;11.546;2023-09-07T03:10:36;11.50;99.90
27200;DHT22;14714;48.106;11.546;2023-09-07T03:13:06;11.50;99.90
27200;DHT22;14714;48.106;11.546;2023-09-07T03:15:35;11.50;99.90
27200;DHT22;14714;48.106;11.546;2023-09-07T03:18:06;11.50;99.90
27200;DHT22;14714;48.106;11.546;2023-09-07T03:20:36;11.50;99.90
27200;DHT22;14714;48.106;11.546;2023-09-07T03:23:05;11.40;99.90
27200;DHT22;14714;48.106;11.546;2023-09-07T03:25:36;11.50;99.90
27200;DHT22;14714;48.106;11.546;2023-09-07T03:28:04;11.40;99.90
27200;DHT22;14714;48.106;11.546;2023-09-07T03:30:34;11.40;99.90
27200;DHT22;14714;48.106;11.546;2023-09-07T03:33:04;11.40;99.90
27200;DHT22;14714;48.106;11.546;2023-09-07T03:35:32;11.40;99.90
27200;DHT22;14714;48.106;11.546;2023-09-07T03:38:06;11.40;99.90
27200;DHT22;14714;48.106;11.546;2023-09-07T03:40:37;11.40;99.90
27200;DHT22;14714;48.106;11.546;2023-09-07T03:43:07;11.40;99.90
27200;DHT22;14714;48.106;11.546;2023-09-07T03:45:39;11.30;99.90
27200;DHT22;14714;48.106;11.546;2023-09-07T03:48:08;11.30;99.90
27200;DHT22;14714;48.106;11.546;2023-09-07T03:50:37;11.30;99.90
27200;DHT22;14714;48.106;11.546;2023-09-07T03:53:10;11.20;99.90
27200;DHT22;14714;48.106;11.546;2023-09-07T03:55:42;11.20;99.90
27200;DHT22;14714;48.106;11.546;2023-09-07T03:58:12;11.20;99.90
27200;DHT22;14714;48.106;11.546;2023-09-07T04:00:44;11.20;99.90
27200;DHT22;14714;48.106;11.546;2023-09-07T04:03:13;11.20;99.90
27200;DHT22;14714;48.106;11.546;2023-09-07T04:05:42;11.20;99.90
27200;DHT22;14714;48.106;11.546;2023-09-07T04:08:11;11.20;99.90
27200;DHT22;14714;48.106;11.546;2023-09-07T04:10:41;11.20;99.90
27200;DHT22;14714;48.106;11.546;2023-09-07T04:13:26;11.20;99.90
27200;DHT22;14714;48.106;11.546;2023-09-07T04:15:56;11.10;99.90
27200;DHT22;14714;48.106;11.546;2023-09-07T04:18:26;11.10;99.90
27200;DHT22;14714;48.106;11.546;2023-09-07T04:21:04;11.10;99.90
27200;DHT22;14714;48.106;11.546;2023-09-07T04:23:33;11.10;99.90
27200;DHT22;14714;48.106;11.546;2023-09-07T04:26:10;11.10;99.90
27200;DHT22;14714;48.106;11.546;2023-09-07T04:28:42;11.10;99.90
27200;DHT22;14714;48.106;11.546;2023-09-07T04:31:11;11.10;99.90
27200;DHT22;14714;48.106;11.546;2023-09-07T04:33:40;11.00;99.90
27200;DHT22;14714;48.106;11.546;2023-09-07T04:36:11;11.00;99.90
27200;DHT22;14714;48.106;11.546;2023-09-07T04:38:42;11.00;99.90
27200;DHT22;14714;48.106;11.546;2023-09-07T04:41:13;11.00;99.90
27200;DHT22;14714;48.106;11.546;2023-09-07T04:43:43;11.00;99.90
27200;DHT22;14714;48.106;11.546;2023-09-07T04:46:13;11.00;99.90
27200;DHT22;14714;48.106;11.546;2023-09-07T04:48:49;11.00;99.90
27200;DHT22;14714;48.106;11.546;2023-09-07T04:51:20;11.00;99.90
27200;DHT22;14714;48.106;11.546;2023-09-07T04:53:51;10.90;99.90
27200;DHT22;14714;48.106;11.546;2023-09-07T04:56:22;11.00;99.90
27200;DHT22;14714;48.106;11.546;2023-09-07T04:58:58;11.00;99.90
27200;DHT22;14714;48.106;11.546;2023-09-07T05:01:26;11.10;99.90
27200;DHT22;14714;48.106;11.546;2023-09-07T05:03:59;11.10;99.90
27200;DHT22;14714;48.106;11.546;2023-09-07T05:06:33;11.10;99.90
27200;DHT22;14714;48.106;11.546;2023-09-07T05:09:06;11.10;99.90
27200;DHT22;14714;48.106;11.546;2023-09-07T05:11:35;11.20;99.90
27200;DHT22;14714;48.106;11.546;2023-09-07T05:14:06;11.20;99.90
27200;DHT22;14714;48.106;11.546;2023-09-07T05:16:35;11.20;99.90
27200;DHT22;14714;48.106;11.546;2023-09-07T05:19:07;11.30;99.90
27200;DHT22;14714;48.106;11.546;2023-09-07T05:21:36;11.30;99.90
27200;DHT22;14714;48.106;11.546;2023-09-07T05:24:06;11.30;99.90
27200;DHT22;14714;48.106;11.546;2023-09-07T05:26:39;11.40;99.90
27200;DHT22;14714;48.106;11.546;2023-09-07T05:29:11;11.40;99.90
27200;DHT22;14714;48.106;11.546;2023-09-07T05:31:43;11.50;99.90
27200;DHT22;14714;48.106;11.546;2023-09-07T05:34:11;11.50;99.90
27200;DHT22;14714;48.106;11.546;2023-09-07T05:36:42;11.60;99.90
27200;DHT22;14714;48.106;11.546;2023-09-07T05:39:14;11.70;99.90
27200;DHT22;14714;48.106;11.546;2023-09-07T05:41:49;11.80;99.90
27200;DHT22;14714;48.106;11.546;2023-09-07T05:44:22;11.90;99.90
27200;DHT22;14714;48.106;11.546;2023-09-07T05:46:57;12.30;99.90
27200;DHT22;14714;48.106;11.546;2023-09-07T05:49:28;13.80;99.90
27200;DHT22;14714;48.106;11.546;2023-09-07T05:51:59;15.60;99.90
27200;DHT22;14714;48.106;11.546;2023-09-07T05:54:30;17.50;99.90
27200;DHT22;14714;48.106;11.546;2023-09-07T05:56:59;19.20;99.90
27200;DHT22;14714;48.106;11.546;2023-09-07T05:59:29;21.00;99.90
27200;DHT22;14714;48.106;11.546;2023-09-07T06:02:11;22.60;99.90
27200;DHT22;14714;48.106;11.546;2023-09-07T06:04:42;23.50;99.90
27200;DHT22;14714;48.106;11.546;2023-09-07T06:07:13;23.40;97.10
27200;DHT22;14714;48.106;11.546;2023-09-07T06:09:45;22.60;96.50
27200;DHT22;14714;48.106;11.546;2023-09-07T06:12:27;21.60;97.80
27200;DHT22;14714;48.106;11.546;2023-09-07T06:14:57;20.70;99.90
27200;DHT22;14714;48.106;11.546;2023-09-07T06:17:29;20.00;99.90
27200;DHT22;14714;48.106;11.546;2023-09-07T06:20:09;19.30;99.90
27200;DHT22;14714;48.106;11.546;2023-09-07T06:22:39;18.80;99.90
27200;DHT22;14714;48.106;11.546;2023-09-07T06:25:09;18.60;99.90
27200;DHT22;14714;48.106;11.546;2023-09-07T06:27:37;19.50;99.90
27200;DHT22;14714;48.106;11.546;2023-09-07T06:30:07;21.00;99.90
27200;DHT22;14714;48.106;11.546;2023-09-07T06:32:38;22.80;99.90
27200;DHT22;14714;48.106;11.546;2023-09-07T06:35:08;24.70;99.90
27200;DHT22;14714;48.106;11.546;2023-09-07T06:37:41;26.60;95.60
27200;DHT22;14714;48.106;11.546;2023-09-07T06:40:12;28.40;89.80
27200;DHT22;14714;48.106;11.546;2023-09-07T06:42:45;30.00;75.50
27200;DHT22;14714;48.106;11.546;2023-09-07T06:45:18;31.60;65.80
27200;DHT22;14714;48.106;11.546;2023-09-07T06:47:49;33.00;58.40
27200;DHT22;14714;48.106;11.546;2023-09-07T06:50:22;34.20;53.30
27200;DHT22;14714;48.106;11.546;2023-09-07T06:52:51;35.30;49.00
27200;DHT22;14714;48.106;11.546;2023-09-07T06:55:25;36.10;47.00
27200;DHT22;14714;48.106;11.546;2023-09-07T06:57:57;36.90;44.90
27200;DHT22;14714;48.106;11.546;2023-09-07T07:00:30;37.70;42.70
27200;DHT22;14714;48.106;11.546;2023-09-07T07:03:02;38.20;41.20
27200;DHT22;14714;48.106;11.546;2023-09-07T07:05:33;38.60;39.70
27200;DHT22;14714;48.106;11.546;2023-09-07T07:08:04;38.80;39.50
27200;DHT22;14714;48.106;11.546;2023-09-07T07:10:34;39.00;38.70
27200;DHT22;14714;48.106;11.546;2023-09-07T07:13:03;39.00;36.70
27200;DHT22;14714;48.106;11.546;2023-09-07T07:15:33;39.30;37.20
27200;DHT22;14714;48.106;11.546;2023-09-07T07:18:09;39.70;37.00
27200;DHT22;14714;48.106;11.546;2023-09-07T07:20:39;40.10;35.90
27200;DHT22;14714;48.106;11.546;2023-09-07T07:23:08;40.50;35.10
27200;DHT22;14714;48.106;11.546;2023-09-07T07:25:37;40.50;34.10
27200;DHT22;14714;48.106;11.546;2023-09-07T07:28:07;40.40;34.10
27200;DHT22;14714;48.106;11.546;2023-09-07T07:30:41;40.40;33.70
27200;DHT22;14714;48.106;11.546;2023-09-07T07:33:12;40.40;34.20
27200;DHT22;14714;48.106;11.546;2023-09-07T07:35:44;40.70;33.70
27200;DHT22;14714;48.106;11.546;2023-09-07T07:38:14;40.80;33.10
27200;DHT22;14714;48.106;11.546;2023-09-07T07:40:43;41.00;33.30
27200;DHT22;14714;48.106;11.546;2023-09-07T07:43:15;41.20;32.10
27200;DHT22;14714;48.106;11.546;2023-09-07T07:45:46;41.60;32.50
27200;DHT22;14714;48.106;11.546;2023-09-07T07:48:16;42.00;32.00
27200;DHT22;14714;48.106;11.546;2023-09-07T07:51:06;42.30;31.50
27200;DHT22;14714;48.106;11.546;2023-09-07T07:53:51;42.50;30.70
27200;DHT22;14714;48.106;11.546;2023-09-07T07:56:25;42.70;30.90
27200;DHT22;14714;48.106;11.546;2023-09-07T07:59:19;42.90;30.40
27200;DHT22;14714;48.106;11.546;2023-09-07T08:02:05;43.00;30.50
27200;DHT22;14714;48.106;11.546;2023-09-07T08:04:59;42.50;30.50
27200;DHT22;14714;48.106;11.546;2023-09-07T08:07:47;42.40;30.80
27200;DHT22;14714;48.106;11.546;2023-09-07T08:10:45;42.30;31.20
27200;DHT22;14714;48.106;11.546;2023-09-07T08:13:51;42.50;31.20
27200;DHT22;14714;48.106;11.546;2023-09-07T08:16:22;43.10;31.00
27200;DHT22;14714;48.106;11.546;2023-09-07T08:19:19;43.50;30.00
27200;DHT22;14714;48.106;11.546;2023-09-07T08:22:02;43.90;29.80
27200;DHT22;14714;48.106;11.546;2023-09-07T08:24:50;44.20;30.00
27200;DHT22;14714;48.106;11.546;2023-09-07T08:27:38;44.50;29.60
27200;DHT22;14714;48.106;11.546;2023-09-07T08:30:55;44.80;28.80
27200;DHT22;14714;48.106;11.546;2023-09-07T08:34:09;44.80;29.30
27200;DHT22;14714;48.106;11.546;2023-09-07T08:37:52;44.70;30.00
27200;DHT22;14714;48.106;11.546;2023-09-07T08:41:02;44.80;28.70
27200;DHT22;14714;48.106;11.546;2023-09-07T08:44:20;44.80;29.30
27200;DHT22;14714;48.106;11.546;2023-09-07T08:47:48;44.90;29.60
27200;DHT22;14714;48.106;11.546;2023-09-07T08:50:58;45.00;28.90
27200;DHT22;14714;48.106;11.546;2023-09-07T08:54:13;44.60;29.00
27200;DHT22;14714;48.106;11.546;2023-09-07T08:57:15;43.90;29.70
27200;DHT22;14714;48.106;11.546;2023-09-07T09:00:21;43.60;29.70
27200;DHT22;14714;48.106;11.546;2023-09-07T09:03:30;43.50;30.10
27200;DHT22;14714;48.106;11.546;2023-09-07T09:06:58;43.50;30.00
27200;DHT22;14714;48.106;11.546;2023-09-07T09:10:09;43.60;30.00
27200;DHT22;14714;48.106;11.546;2023-09-07T09:13:11;43.30;29.70
27200;DHT22;14714;48.106;11.546;2023-09-07T09:16:11;42.60;31.50
27200;DHT22;14714;48.106;11.546;2023-09-07T09:19:04;42.50;32.00
27200;DHT22;14714;48.106;11.546;2023-09-07T09:22:30;42.50;31.90
27200;DHT22;14714;48.106;11.546;2023-09-07T09:25:42;42.70;31.00
27200;DHT22;14714;48.106;11.546;2023-09-07T09:28:41;42.60;30.80
27200;DHT22;14714;48.106;11.546;2023-09-07T09:31:46;42.30;30.90
27200;DHT22;14714;48.106;11.546;2023-09-07T09:35:13;41.80;32.30
27200;DHT22;14714;48.106;11.546;2023-09-07T09:38:32;41.30;33.10
27200;DHT22;14714;48.106;11.546;2023-09-07T09:41:03;41.10;33.30
27200;DHT22;14714;48.106;11.546;2023-09-07T09:43:35;40.40;34.00
27200;DHT22;14714;48.106;11.546;2023-09-07T09:46:04;40.00;35.00
27200;DHT22;14714;48.106;11.546;2023-09-07T09:48:36;40.10;35.20
27200;DHT22;14714;48.106;11.546;2023-09-07T09:51:05;40.20;34.80
27200;DHT22;14714;48.106;11.546;2023-09-07T09:53:37;39.70;34.70
27200;DHT22;14714;48.106;11.546;2023-09-07T09:56:10;38.90;36.50
27200;DHT22;14714;48.106;11.546;2023-09-07T09:58:42;38.30;37.80
27200;DHT22;14714;48.106;11.546;2023-09-07T10:01:11;38.10;37.80
27200;DHT22;14714;48.106;11.546;2023-09-07T10:03:47;37.90;38.70
27200;DHT22;14714;48.106;11.546;2023-09-07T10:06:24;37.90;38.90
27200;DHT22;14714;48.106;11.546;2023-09-07T10:09:03;37.90;38.20
27200;DHT22;14714;48.106;11.546;2023-09-07T10:11:36;37.50;39.50
27200;DHT22;14714;48.106;11.546;2023-09-07T10:14:08;37.50;39.40
27200;DHT22;14714;48.106;11.546;2023-09-07T10:19:17;37.60;39.90
27200;DHT22;14714;48.106;11.546;2023-09-07T10:21:46;37.40;38.80
27200;DHT22;14714;48.106;11.546;2023-09-07T10:24:34;35.90;41.30
27200;DHT22;14714;48.106;11.546;2023-09-07T10:27:08;35.00;42.90
27200;DHT22;14714;48.106;11.546;2023-09-07T10:32:15;33.60;45.70
27200;DHT22;14714;48.106;11.546;2023-09-07T10:34:47;33.50;47.00
27200;DHT22;14714;48.106;11.546;2023-09-07T10:37:20;33.50;47.00
27200;DHT22;14714;48.106;11.546;2023-09-07T10:39:58;33.50;46.50
27200;DHT22;14714;48.106;11.546;2023-09-07T10:42:27;33.20;47.30
27200;DHT22;14714;48.106;11.546;2023-09-07T10:44:56;33.00;47.20
27200;DHT22;14714;48.106;11.546;2023-09-07T10:47:40;33.20;47.50
27200;DHT22;14714;48.106;11.546;2023-09-07T10:50:11;33.10;47.30
27200;DHT22;14714;48.106;11.546;2023-09-07T10:52:43;32.80;48.10
27200;DHT22;14714;48.106;11.546;2023-09-07T10:55:12;32.30;48.50
27200;DHT22;14714;48.106;11.546;2023-09-07T10:57:47;31.80;49.30
27200;DHT22;14714;48.106;11.546;2023-09-07T11:00:16;31.30;50.50
27200;DHT22;14714;48.106;11.546;2023-09-07T11:02:47;31.20;51.10
27200;DHT22;14714;48.106;11.546;2023-09-07T11:05:16;31.00;51.60
27200;DHT22;14714;48.106;11.546;2023-09-07T11:07:46;30.80;52.50
27200;DHT22;14714;48.106;11.546;2023-09-07T11:10:15;30.80;52.10
27200;DHT22;14714;48.106;11.546;2023-09-07T11:12:43;30.80;51.50
27200;DHT22;14714;48.106;11.546;2023-09-07T11:15:12;30.50;52.50
27200;DHT22;14714;48.106;11.546;2023-09-07T11:17:41;30.20;53.10
27200;DHT22;14714;48.106;11.546;2023-09-07T11:20:10;30.00;53.90
27200;DHT22;14714;48.106;11.546;2023-09-07T11:22:39;29.40;54.90
27200;DHT22;14714;48.106;11.546;2023-09-07T11:25:25;29.00;55.50
27200;DHT22;14714;48.106;11.546;2023-09-07T11:27:54;29.00;56.10
27200;DHT22;14714;48.106;11.546;2023-09-07T11:30:25;28.80;56.50
27200;DHT22;14714;48.106;11.546;2023-09-07T11:33:01;28.70;57.10
27200;DHT22;14714;48.106;11.546;2023-09-07T11:35:29;28.60;57.90
27200;DHT22;14714;48.106;11.546;2023-09-07T11:38:02;28.40;58.20
27200;DHT22;14714;48.106;11.546;2023-09-07T11:40:35;28.20;58.40
27200;DHT22;14714;48.106;11.546;2023-09-07T11:43:03;27.80;59.50
27200;DHT22;14714;48.106;11.546;2023-09-07T11:45:32;27.40;61.10
27200;DHT22;14714;48.106;11.546;2023-09-07T11:48:01;27.20;61.70
27200;DHT22;14714;48.106;11.546;2023-09-07T11:50:30;27.00;63.00
27200;DHT22;14714;48.106;11.546;2023-09-07T11:52:59;26.80;64.00
27200;DHT22;14714;48.106;11.546;2023-09-07T11:55:28;26.60;63.40
27200;DHT22;14714;48.106;11.546;2023-09-07T11:57:56;26.60;64.00
27200;DHT22;14714;48.106;11.546;2023-09-07T12:00:25;26.50;65.30
27200;DHT22;14714;48.106;11.546;2023-09-07T12:02:54;26.40;66.10
27200;DHT22;14714;48.106;11.546;2023-09-07T12:05:22;26.20;66.70
27200;DHT22;14714;48.106;11.546;2023-09-07T12:07:52;26.10;67.60
27200;DHT22;14714;48.106;11.546;2023-09-07T12:10:20;26.00;68.10
27200;DHT22;14714;48.106;11.546;2023-09-07T12:12:50;25.90;68.80
27200;DHT22;14714;48.106;11.546;2023-09-07T12:15:18;25.80;68.90
27200;DHT22;14714;48.106;11.546;2023-09-07T12:17:45;25.80;69.30
27200;DHT22;14714;48.106;11.546;2023-09-07T12:20:12;25.80;69.90
27200;DHT22;14714;48.106;11.546;2023-09-07T12:22:41;25.70;68.90
27200;DHT22;14714;48.106;11.546;2023-09-07T12:25:08;25.70;69.50
27200;DHT22;14714;48.106;11.546;2023-09-07T12:27:47;25.70;69.60
27200;DHT22;14714;48.106;11.546;2023-09-07T12:30:20;25.60;69.10
27200;DHT22;14714;48.106;11.546;2023-09-07T12:32:48;25.60;69.70
27200;DHT22;14714;48.106;11.546;2023-09-07T12:35:17;25.50;69.70
27200;DHT22;14714;48.106;11.546;2023-09-07T12:37:43;25.50;69.70
27200;DHT22;14714;48.106;11.546;2023-09-07T12:40:11;25.50;70.50
27200;DHT22;14714;48.106;11.546;2023-09-07T12:42:40;25.50;71.60
27200;DHT22;14714;48.106;11.546;2023-09-07T12:45:09;25.50;70.70
27200;DHT22;14714;48.106;11.546;2023-09-07T12:47:38;25.50;70.60
27200;DHT22;14714;48.106;11.546;2023-09-07T12:50:05;25.50;70.40
27200;DHT22;14714;48.106;11.546;2023-09-07T12:52:34;25.50;70.40
27200;DHT22;14714;48.106;11.546;2023-09-07T12:55:05;25.50;70.90
27200;DHT22;14714;48.106;11.546;2023-09-07T12:57:32;25.50;71.50
27200;DHT22;14714;48.106;11.546;2023-09-07T12:59:59;25.50;70.60
27200;DHT22;14714;48.106;11.546;2023-09-07T13:02:26;25.50;70.80
27200;DHT22;14714;48.106;11.546;2023-09-07T13:04:54;25.50;71.00
27200;DHT22;14714;48.106;11.546;2023-09-07T13:07:22;25.50;71.20
27200;DHT22;14714;48.106;11.546;2023-09-07T13:09:49;25.50;71.30
27200;DHT22;14714;48.106;11.546;2023-09-07T13:12:16;25.50;71.30
27200;DHT22;14714;48.106;11.546;2023-09-07T13:14:43;25.40;71.00
27200;DHT22;14714;48.106;11.546;2023-09-07T13:17:13;25.40;72.20
27200;DHT22;14714;48.106;11.546;2023-09-07T13:19:41;25.40;71.30
27200;DHT22;14714;48.106;11.546;2023-09-07T13:22:09;25.40;71.60
27200;DHT22;14714;48.106;11.546;2023-09-07T13:24:36;25.40;70.90
27200;DHT22;14714;48.106;11.546;2023-09-07T13:27:03;25.30;71.50
27200;DHT22;14714;48.106;11.546;2023-09-07T13:29:31;25.30;71.10
27200;DHT22;14714;48.106;11.546;2023-09-07T13:31:58;25.30;70.90
27200;DHT22;14714;48.106;11.546;2023-09-07T13:34:26;25.20;70.80
27200;DHT22;14714;48.106;11.546;2023-09-07T13:36:53;25.20;71.10
27200;DHT22;14714;48.106;11.546;2023-09-07T13:39:21;25.20;71.10
27200;DHT22;14714;48.106;11.546;2023-09-07T13:41:48;25.20;71.80
27200;DHT22;14714;48.106;11.546;2023-09-07T13:44:15;25.20;71.30
27200;DHT22;14714;48.106;11.546;2023-09-07T13:46:43;25.10;70.90
27200;DHT22;14714;48.106;11.546;2023-09-07T13:49:11;25.10;71.10
27200;DHT22;14714;48.106;11.546;2023-09-07T13:51:40;25.10;71.00
27200;DHT22;14714;48.106;11.546;2023-09-07T13:54:12;25.10;70.90
27200;DHT22;14714;48.106;11.546;2023-09-07T13:56:39;25.20;70.90
27200;DHT22;14714;48.106;11.546;2023-09-07T13:59:10;25.20;70.20
27200;DHT22;14714;48.106;11.546;2023-09-07T14:01:39;25.20;69.30
27200;DHT22;14714;48.106;11.546;2023-09-07T14:04:06;25.20;68.90
27200;DHT22;14714;48.106;11.546;2023-09-07T14:06:33;25.20;69.10
27200;DHT22;14714;48.106;11.546;2023-09-07T14:09:00;25.20;69.10
27200;DHT22;14714;48.106;11.546;2023-09-07T14:11:27;25.20;69.00
27200;DHT22;14714;48.106;11.546;2023-09-07T14:13:53;25.20;68.70
27200;DHT22;14714;48.106;11.546;2023-09-07T14:16:22;25.30;68.70
27200;DHT22;14714;48.106;11.546;2023-09-07T14:18:49;25.30;68.20
27200;DHT22;14714;48.106;11.546;2023-09-07T14:21:17;25.20;68.20
27200;DHT22;14714;48.106;11.546;2023-09-07T14:23:44;25.20;69.00
27200;DHT22;14714;48.106;11.546;2023-09-07T14:26:11;25.20;68.30
27200;DHT22;14714;48.106;11.546;2023-09-07T14:28:38;25.20;66.70
27200;DHT22;14714;48.106;11.546;2023-09-07T14:31:06;25.20;68.80
27200;DHT22;14714;48.106;11.546;2023-09-07T14:33:35;25.20;67.30
27200;DHT22;14714;48.106;11.546;2023-09-07T14:36:06;25.20;68.60
27200;DHT22;14714;48.106;11.546;2023-09-07T14:38:36;25.20;68.90
27200;DHT22;14714;48.106;11.546;2023-09-07T14:41:11;25.20;67.70
27200;DHT22;14714;48.106;11.546;2023-09-07T14:43:46;25.20;66.10
27200;DHT22;14714;48.106;11.546;2023-09-07T14:46:14;25.10;66.80
27200;DHT22;14714;48.106;11.546;2023-09-07T14:48:41;25.10;66.60
27200;DHT22;14714;48.106;11.546;2023-09-07T14:51:09;25.10;66.40
27200;DHT22;14714;48.106;11.546;2023-09-07T14:53:36;25.10;66.50
27200;DHT22;14714;48.106;11.546;2023-09-07T14:56:03;25.20;66.00
27200;DHT22;14714;48.106;11.546;2023-09-07T14:58:30;25.10;66.00
27200;DHT22;14714;48.106;11.546;2023-09-07T15:00:58;25.10;65.80
27200;DHT22;14714;48.106;11.546;2023-09-07T15:03:25;25.10;65.90
27200;DHT22;14714;48.106;11.546;2023-09-07T15:05:52;25.00;66.40
27200;DHT22;14714;48.106;11.546;2023-09-07T15:08:21;25.00;66.10
27200;DHT22;14714;48.106;11.546;2023-09-07T15:10:48;25.00;65.90
27200;DHT22;14714;48.106;11.546;2023-09-07T15:13:15;25.00;66.20
27200;DHT22;14714;48.106;11.546;2023-09-07T15:15:42;25.00;66.10
27200;DHT22;14714;48.106;11.546;2023-09-07T15:18:10;25.00;65.50
27200;DHT22;14714;48.106;11.546;2023-09-07T15:20:37;25.00;65.00
27200;DHT22;14714;48.106;11.546;2023-09-07T15:23:04;25.00;64.30
27200;DHT22;14714;48.106;11.546;2023-09-07T15:25:31;25.00;65.30
27200;DHT22;14714;48.106;11.546;2023-09-07T15:27:58;25.00;64.80
27200;DHT22;14714;48.106;11.546;2023-09-07T15:30:25;25.00;64.50
27200;DHT22;14714;48.106;11.546;2023-09-07T15:32:52;25.00;64.40
27200;DHT22;14714;48.106;11.546;2023-09-07T15:35:19;24.90;64.50
27200;DHT22;14714;48.106;11.546;2023-09-07T15:37:46;25.00;63.90
27200;DHT22;14714;48.106;11.546;2023-09-07T15:40:14;25.00;63.80
27200;DHT22;14714;48.106;11.546;2023-09-07T15:42:41;25.00;63.60
27200;DHT22;14714;48.106;11.546;2023-09-07T15:45:08;25.00;63.60
27200;DHT22;14714;48.106;11.546;2023-09-07T15:47:35;25.00;63.80
27200;DHT22;14714;48.106;11.546;2023-09-07T15:50:03;25.00;63.80
27200;DHT22;14714;48.106;11.546;2023-09-07T15:52:30;25.00;63.60
27200;DHT22;14714;48.106;11.546;2023-09-07T15:54:57;24.90;63.10
27200;DHT22;14714;48.106;11.546;2023-09-07T15:57:25;24.90;63.30
27200;DHT22;14714;48.106;11.546;2023-09-07T15:59:52;24.90;63.70